x

Stonewall Bank - 20nm West Of Newport, Or (46050) Weather Station

12:30pm - Tue 16th Jan 2018 All times are PST. -8 hours from GMT.

  • Wind
    16mph, 18mph gusts
  • Sea Temp 52°f
  • Air Temp 52°f
  • Sea Pressure 1023.9mb
  • Stonewall Bank - 20nm West Of Newport, Or
  • Stonewall Bank - 20nm West Of Newport, Or

More Historic Weather Station data

Upgrade to MSW Pro to gain access to the past 30 days of data for over 8000 Wavebouys and Weather Stations around the globe.

Join

Comparision Forecast

View Surf forecast
   
Tue 01/16 12:30pm  -   -   -  16 18 mph 1023.9mb 52f 52f
12:20pm  -   -   -  16 18 mph 1023.9mb 52f 52f
12:10pm  -   -   -  16 18 mph 1023.9mb 52f 53f
12:00pm  -   -   -  16 20 mph 1023.9mb 52f 53f
11:50am 11ft 12s 8s 16 20 mph 1024mb 52f 53f
11:40am 11ft  -  8s 18 25 mph 1024mb 52f 53f
11:30am  -   -   -  18 22 mph 1024mb 52f 53f
11:20am  -   -   -  18 22 mph 1023.9mb 52f 53f
11:10am  -   -   -  16 20 mph 1023.8mb 52f 52f
11:00am  -   -   -  16 20 mph 1023.7mb 52f 52f
10:50am 11ft 12s 8s 16 20 mph 1023.7mb 52f 52f
10:40am  -   -   -  18 25 mph 1023.7mb 52f 52f
10:30am  -   -   -  18 22 mph 1023.6mb 52f 52f
10:20am  -   -   -  16 18 mph 1023.5mb 52f 52f
10:10am  -   -   -  16 18 mph 1023.3mb 52f 52f
10:00am  -   -   -  13 18 mph 1023.1mb 52f 52f
9:50am 11.5ft 11s 9s 13 18 mph 1023.2mb 52f 52f
9:40am 11.5ft  -  9s 13 16 mph 1023mb 52f 52f
9:30am  -   -   -  13 18 mph 1022.8mb 52f 52f
9:20am  -   -   -  13 18 mph 1022.7mb 52f 52f
9:10am  -   -   -  16 18 mph 1022.6mb 52f 52f
9:00am  -   -   -  16 20 mph 1022.3mb 52f 52f
8:50am 12ft 12s 9s 16 20 mph 1022.1mb - 52f
8:40am  -   -   -  16 20 mph 1022mb 52f 52f
8:30am  -   -   -  16 18 mph 1021.8mb 52f 52f
8:20am  -   -   -  16 20 mph 1021.6mb 52f 52f
8:10am  -   -   -  16 20 mph 1021.3mb 52f 52f
8:00am  -   -   -  18 20 mph 1021.1mb 52f 52f
7:50am 12ft 13s 8s 16 20 mph 1020.8mb 52f 52f
7:40am  -   -   -  16 22 mph 1020.7mb 52f 52f
7:30am  -   -   -  16 20 mph 1020.8mb 52f 52f
7:20am  -   -   -  18 22 mph 1020.8mb 52f 52f
7:10am  -   -   -  18 22 mph 1021mb 52f 52f
7:00am  -   -   -  18 22 mph 1020.9mb 52f 52f
6:50am 12ft 12s 8s 20 25 mph 1020.9mb 52f 52f
6:40am  -   -   -  22 27 mph 1020.8mb 52f 52f
6:30am  -   -   -  20 25 mph 1020.9mb 52f 52f
6:20am  -   -   -  18 22 mph 1021mb 52f 52f
6:10am  -   -   -  18 22 mph 1020.9mb 52f 52f
6:00am  -   -   -  20 25 mph 1020.7mb 52f 52f
5:50am 12ft 13s 8s 20 25 mph 1020.5mb 52f 52f
5:40am  -   -   -  20 25 mph 1020.4mb 52f 52f
5:30am  -   -   -  20 25 mph 1020.3mb 52f 51f
5:20am  -   -   -  20 27 mph 1020.2mb - 51f
5:10am  -   -   -  20 29 mph 1020.1mb 52f 52f
5:00am  -   -   -  22 27 mph 1019.9mb 52f 52f
4:50am 12ft 12s 9s 22 27 mph 1019.9mb 52f 52f
4:40am 12ft  -  9s 22 29 mph 1019.7mb 52f 52f
4:30am  -   -   -  22 31 mph 1019.5mb 52f 52f
4:20am  -   -   -  18 25 mph 1019.6mb 52f 52f
4:10am  -   -   -  18 27 mph 1019.4mb 52f 51f
4:00am  -   -   -  20 29 mph 1019.4mb 52f 51f
3:50am 12ft 15s 9s 27 38 mph 1019.5mb 52f 51f
3:40am 12ft  -  9s 22 31 mph 1019.4mb 52f 53f
3:30am  -   -   -  20 25 mph 1019.2mb 52f 53f
3:20am  -   -   -  18 22 mph 1019.1mb 52f 53f
3:10am  -   -   -  20 25 mph 1019mb 52f 53f
3:00am  -   -   -  18 22 mph 1018.8mb 52f 53f
2:50am 12ft 13s 9s 18 22 mph 1018.7mb 52f 53f
2:40am 12ft  -  9s 18 22 mph 1018.4mb 52f 53f
2:30am  -   -   -  18 22 mph 1018.3mb 52f 52f
2:20am  -   -   -  16 20 mph 1018.1mb 52f 52f
2:10am  -   -   -  16 20 mph 1018mb 52f 53f
2:00am  -   -   -  13 18 mph 1017.6mb 52f 52f
1:50am 13ft 14s 9s 13 18 mph 1017.5mb 52f 52f
1:40am 13ft  -  9s 13 18 mph 1017.2mb 52f 52f
1:30am  -   -   -  13 16 mph 1017mb 52f 52f
1:20am  -   -   -  11 16 mph 1016.8mb 52f 52f
1:10am  -   -   -  13 16 mph 1017.1mb 52f 52f
1:00am  -   -   -  11 16 mph 1017mb 52f 52f
12:50am 12ft 12s 9s 11 16 mph 1016.7mb 52f 52f
12:40am  -   -   -  11 16 mph 1016.5mb 52f 52f
12:30am  -   -   -  11 18 mph 1016.6mb 52f 52f
12:20am  -   -   -  13 18 mph 1016.7mb 52f 52f
12:10am  -   -   -  11 16 mph 1016.5mb 52f 52f
12:00am  -   -   -  11 16 mph 1016.4mb 52f 52f
Mon 01/15 11:50pm 13.5ft 14s 9s 11 16 mph 1016.7mb 52f 52f
11:40pm 13.5ft  -  9s 11 16 mph 1016.6mb 52f 52f
11:30pm  -   -   -  11 18 mph 1016.6mb 52f 52f
11:20pm  -   -   -  13 18 mph 1016.4mb 52f 52f
11:10pm  -   -   -  13 18 mph 1016.3mb 52f 52f
11:00pm  -   -   -  13 18 mph 1016.3mb - 52f
10:50pm 13.5ft 12s 8s 16 20 mph 1016.2mb 52f 52f
10:40pm 13.5ft  -  8s 16 22 mph 1015.9mb 52f 53f
10:30pm  -   -   -  16 20 mph 1015.7mb - 53f
10:20pm  -   -   -  16 22 mph 1015.7mb 52f 53f
10:10pm  -   -   -  16 20 mph 1015.6mb 52f 53f
10:00pm  -   -   -  16 20 mph 1015.4mb 52f 53f
9:50pm 13ft 13s 8s 20 27 mph 1015.5mb 52f 53f
9:40pm  -   -   -  20 25 mph 1015.3mb 52f 53f
9:30pm  -   -   -  20 25 mph 1015.1mb 52f 52f
9:20pm  -   -   -  22 27 mph 1014.9mb 52f 53f
9:10pm  -   -   -  22 29 mph 1014.5mb 52f 53f
9:00pm  -   -   -  20 27 mph 1014.2mb 52f 53f
7:20pm  -   -   -  22 27 mph 1012.6mb 52f 52f
7:10pm  -   -   -  20 27 mph 1012.4mb 52f 51f
7:00pm  -   -   -  22 27 mph 1012mb 52f 51f
3:50pm 11ft 13s 8s 25 31 mph 1009.9mb 52f 56f
3:40pm  -   -   -  25 29 mph 1010.1mb 52f 55f
3:30pm  -   -   -  22 29 mph 1010.5mb 52f 55f
3:20pm  -   -   -  20 25 mph 1010.3mb 52f 55f
3:10pm  -   -   -  20 27 mph 1010.3mb 52f 55f
3:00pm  -   -   -  22 27 mph 1010.3mb 52f 55f
2:50pm 10ft 16s 8s 20 27 mph 1010.5mb 52f 55f
2:40pm 10ft  -  8s 22 27 mph 1010.6mb 52f 55f
2:30pm  -   -   -  22 27 mph 1010.5mb 52f 55f
2:20pm  -   -   -  22 29 mph 1010.3mb 52f 55f
2:10pm  -   -   -  25 31 mph 1010.4mb 52f 55f
2:00pm  -   -   -  20 27 mph 1010.3mb 52f 55f
1:50pm 10ft 13s 8s 20 27 mph 1010.3mb 52f 55f
1:40pm 10ft  -  8s 22 27 mph 1010.4mb 52f 56f
1:30pm  -   -   -  22 31 mph 1010.6mb 52f 56f
1:20pm  -   -   -  20 27 mph 1010.7mb 52f 55f
1:10pm  -   -   -  20 25 mph 1010.9mb 52f 55f
1:00pm  -   -   -  16 20 mph 1011.1mb 52f 54f
12:50pm 10ft 15s 9s 16 20 mph 1011.2mb 52f 53f
12:30pm  -   -   -  13 18 mph 1011.6mb 52f 53f
12:20pm  -   -   -  13 18 mph 1011.5mb 52f 53f
12:10pm  -   -   -  13 16 mph 1011.4mb 52f 52f
12:00pm  -   -   -  9 13 mph 1011.5mb 52f 53f
11:50am 11.5ft 15s 10s 7 9 mph 1011.4mb 52f 53f
11:40am  -   -   -  7 9 mph 1011.5mb 52f 52f
11:30am  -   -   -  7 11 mph 1011.7mb 52f 52f
11:20am  -   -   -  9 13 mph 1011.9mb 52f 53f
11:10am  -   -   -  11 16 mph 1011.8mb 52f 53f
11:00am  -   -   -  11 18 mph 1011.5mb 52f 53f
10:50am 13ft 14s 10s 11 18 mph 1011.3mb 52f 53f
10:40am 13ft  -  10s 13 20 mph 1011.3mb 52f 52f
10:30am  -   -   -  13 18 mph 1011.5mb 52f 52f
10:20am  -   -   -  16 22 mph 1011.6mb 52f 52f
10:10am  -   -   -  16 22 mph 1011.5mb 52f 52f
10:00am  -   -   -  16 20 mph 1011.7mb 52f 52f
9:50am 12ft 15s 10s 16 22 mph 1011.8mb 52f 52f
9:40am 12ft  -  10s 16 22 mph 1011.8mb 52f 52f
9:30am  -   -   -  16 22 mph 1012.1mb 52f 52f
9:20am  -   -   -  13 20 mph 1012.2mb 52f 52f
9:10am  -   -   -  13 20 mph 1012.4mb 52f 52f
9:00am  -   -   -  16 20 mph 1012.7mb 52f 52f
8:50am 14ft 15s 11s 16 20 mph 1012.8mb 52f 52f
8:40am 14ft  -  11s 16 22 mph 1013mb 52f 52f
8:30am  -   -   -  16 20 mph - 52f 52f
8:20am  -   -   -  13 22 mph 1013.4mb 52f 52f
8:10am  -   -   -  16 20 mph 1013.5mb 52f 52f
8:00am  -   -   -  18 22 mph 1013.5mb 52f 52f
7:50am 11.5ft 16s 9s 20 27 mph 1013.2mb 52f 52f
7:40am 11.5ft  -  9s 22 31 mph 1013mb 52f 52f
7:30am  -   -   -  22 31 mph 1012.9mb 52f 52f
7:20am  -   -   -  25 31 mph 1012.8mb 52f 52f
7:10am  -   -   -  25 38 mph 1012.6mb 52f 52f
7:00am  -   -   -  22 29 mph 1013.2mb 52f 52f
6:50am 12.5ft 17s 10s 20 29 mph 1013.5mb 52f 52f
6:40am 12.5ft  -  10s 18 25 mph 1013.7mb 52f 53f
6:30am  -   -   -  16 22 mph 1014.1mb 52f 53f
6:20am  -   -   -  16 20 mph 1014.2mb 52f 53f
6:10am  -   -   -  13 20 mph 1014.6mb 52f 52f
6:00am  -   -   -  13 18 mph 1014.8mb 52f 53f
5:50am 12.5ft 13s 10s 13 20 mph 1015mb 52f 53f
5:40am  -   -   -  13 18 mph 1015.2mb 52f 53f
5:30am  -   -   -  13 18 mph 1015.3mb - 53f
5:20am  -   -   -  13 18 mph 1015.4mb 52f 53f
5:10am  -   -   -  13 18 mph 1015.4mb 52f 53f
5:00am  -   -   -  13 20 mph - 52f 53f
4:50am 13.5ft 15s 11s 13 20 mph 1015.6mb 52f 53f
4:40am  -   -   -  13 20 mph 1015.6mb 52f 53f
4:30am  -   -   -  13 20 mph 1015.6mb 52f 53f
4:20am  -   -   -  13 18 mph 1015.5mb 52f 53f
4:10am  -   -   -  13 20 mph - 52f 52f
4:00am  -   -   -  11 16 mph 1015.6mb 52f 52f
3:50am 13ft 17s 11s 11 18 mph 1015.6mb - 52f
3:40am 13ft  -  11s 11 16 mph 1015.4mb 52f 53f
3:30am  -   -   -  11 18 mph 1015.5mb 52f 53f
3:20am  -   -   -  11 16 mph 1015.7mb 52f 53f
3:10am  -   -   -  11 18 mph 1015.6mb 52f 53f
3:00am  -   -   -  9 16 mph 1015.6mb 52f 53f
2:50am 12.5ft 17s 10s 9 13 mph 1015.8mb 52f 53f
2:40am  -   -   -  9 13 mph 1015.9mb 52f 53f
2:30am  -   -   -  9 13 mph 1015.9mb 52f 53f
2:20am  -   -   -  9 13 mph 1015.7mb 52f 53f
2:10am  -   -   -  9 11 mph 1015.8mb 52f 53f
2:00am  -   -   -  7 9 mph 1015.8mb 52f 53f
1:50am 12ft 17s 10s 4 11 mph 1015.7mb 52f 53f
1:40am  -   -   -  7 9 mph 1015.8mb - 53f
1:30am  -   -   -  7 11 mph 1015.9mb 52f 53f
1:20am  -   -   -  9 11 mph 1016mb 52f 53f
1:10am  -   -   -  9 11 mph 1016mb 52f 53f
1:00am  -   -   -  9 13 mph 1015.8mb 52f 53f
12:50am 12ft 13s 10s 11 16 mph 1015.6mb 52f 53f
12:40am 12ft  -  10s 11 18 mph 1015.4mb 52f 53f
12:30am  -   -   -  13 18 mph 1015.3mb 52f 53f
12:20am  -   -   -  11 18 mph 1015.2mb 52f 53f
12:10am  -   -   -  13 18 mph 1015.5mb 52f 53f
12:00am  -   -   -  13 20 mph 1015.5mb 52f 53f
Sun 01/14 11:50pm 12ft 13s 10s 13 20 mph 1015.6mb - 53f
11:40pm  -   -   -  13 18 mph 1015.6mb 52f 53f
11:30pm  -   -   -  13 20 mph 1015.8mb 52f 53f
11:20pm  -   -   -  11 18 mph 1015.9mb 52f 54f
11:10pm  -   -   -  11 13 mph 1016.3mb 52f 54f
11:00pm  -   -   -  11 18 mph 1016.3mb 52f 54f
10:50pm 10.5ft 19s 10s 13 20 mph 1016.2mb 52f 54f
10:40pm 10.5ft  -  10s 16 20 mph 1015.9mb 52f 54f
10:30pm  -   -   -  13 20 mph 1015.8mb 52f 54f
10:20pm  -   -   -  13 18 mph 1016.1mb 52f 54f
10:10pm  -   -   -  13 18 mph 1015.9mb 52f 54f
10:00pm  -   -   -  11 16 mph 1016.1mb 52f 54f
9:50pm 10.5ft 13s 10s 11 18 mph 1016.2mb 52f 54f
9:40pm 10.5ft  -  10s 11 18 mph 1016.2mb 52f 54f
9:30pm  -   -   -  11 16 mph 1016.3mb 52f 55f
9:20pm  -   -   -  13 16 mph 1016.5mb 52f 55f
9:10pm  -   -   -  11 18 mph 1016.5mb 52f 54f
9:00pm  -   -   -  11 16 mph 1016.7mb 52f 54f
8:50pm 10ft 19s 10s 9 13 mph 1016.8mb 52f 54f
8:40pm 10ft  -  10s 9 13 mph 1016.8mb 52f 54f
8:30pm  -   -   -  11 18 mph 1016.8mb 52f 55f
8:20pm  -   -   -  11 16 mph 1016.7mb 52f 55f
8:10pm  -   -   -  11 16 mph 1016.8mb 52f 55f
8:00pm  -   -   -  11 16 mph 1016.8mb - 55f
7:50pm 9ft 14s 10s 11 16 mph 1016.7mb 52f 55f
7:40pm 9ft  -  10s 11 16 mph 1016.8mb 52f 55f
7:30pm  -   -   -  11 16 mph 1016.9mb 52f 55f
7:20pm  -   -   -  13 16 mph 1016.7mb 52f 55f
7:10pm  -   -   -  13 18 mph 1016.8mb 52f 56f
7:00pm  -   -   -  13 18 mph 1016.8mb 52f 56f
6:50pm 9ft 13s 11s 13 20 mph 1016.8mb 52f 57f
6:40pm  -   -   -  13 18 mph 1016.8mb 52f 57f
6:30pm  -   -   -  13 18 mph 1017mb 52f 56f
6:20pm  -   -   -  13 18 mph 1017.1mb 52f 56f
6:10pm  -   -   -  11 18 mph 1017.3mb 52f 56f
6:00pm  -   -   -  11 13 mph 1017.4mb 52f 56f
5:50pm 9.5ft 21s 12s 11 13 mph 1017.5mb 52f 56f
5:40pm 9.5ft  -  12s 11 16 mph 1017.4mb 52f 56f
5:30pm  -   -   -  11 16 mph 1017.5mb 52f 55f
5:20pm  -   -   -  9 13 mph 1017.5mb - 55f
5:10pm  -   -   -  9 13 mph 1017.4mb 52f 55f
5:00pm  -   -   -  11 16 mph 1017.4mb 52f 56f
4:50pm 9ft 14s 11s 11 16 mph 1017.2mb 52f 56f
4:40pm 9ft  -  11s 11 16 mph 1017.2mb 52f 55f
4:30pm  -   -   -  11 18 mph 1017.1mb 52f 55f
4:20pm  -   -   -  13 18 mph - 52f 55f
4:10pm  -   -   -  11 18 mph 1017mb 52f 56f
4:00pm  -   -   -  11 18 mph 1017.1mb 52f 55f
3:50pm 8.5ft 14s 11s 11 16 mph 1017mb 52f 55f
3:40pm 8.5ft  -  11s 11 16 mph 1017mb 52f 55f
3:30pm  -   -   -  9 13 mph 1016.8mb 52f 54f
3:20pm  -   -   -  9 11 mph 1017mb 52f 54f
3:10pm  -   -   -  7 11 mph 1017.1mb 52f 54f
3:00pm  -   -   -  7 11 mph 1017.2mb 52f 54f
2:50pm 8.5ft 14s 11s 7 11 mph 1017.2mb 52f 54f
2:40pm  -   -   -  7 9 mph 1017.4mb 52f 54f
2:30pm  -   -   -  7 9 mph 1017.4mb - 54f
2:20pm  -   -   -  7 11 mph 1017.3mb 52f 54f
2:10pm  -   -   -  7 11 mph 1017.3mb 52f 55f
2:00pm  -   -   -  7 11 mph 1017.4mb 52f 55f
1:50pm 8.5ft 14s 11s 7 11 mph 1017.5mb 52f 54f
1:40pm 8.5ft  -  11s 7 9 mph 1017.8mb 52f 54f
1:30pm  -   -   -  4 7 mph 1017.9mb 52f 53f
1:20pm  -   -   -  4 7 mph 1018mb 52f 53f
1:10pm  -   -   -  4 7 mph 1018.1mb 52f 54f
1:00pm  -   -   -  7 9 mph 1018.1mb 52f 54f
12:50pm 8ft 15s 10s 7 11 mph 1017.9mb 52f 53f
12:40pm 8ft  -  10s 7 11 mph 1017.8mb 52f 53f
12:30pm  -   -   -  9 11 mph 1017.5mb 52f 53f
12:20pm  -   -   -  9 11 mph 1017.6mb 52f 53f
12:10pm  -   -   -  9 11 mph 1017.8mb 52f 53f
12:00pm  -   -   -  9 11 mph 1017.8mb 52f 53f
11:50am 8ft 14s 10s 7 11 mph 1017.9mb 52f 53f
11:40am 8ft  -  10s 7 11 mph 1017.9mb 52f 53f
11:30am  -   -   -  7 9 mph 1018mb 52f 53f
11:20am  -   -   -  9 11 mph 1017.9mb 52f 53f
11:10am  -   -   -  9 11 mph 1017.9mb 52f 54f
11:00am  -   -   -  9 13 mph 1017.9mb 52f 53f
10:50am 8ft 14s 10s 7 11 mph 1018mb 52f 53f
10:40am 8ft  -  10s 7 11 mph 1018.1mb 52f 53f
10:30am  -   -   -  7 11 mph 1018mb 52f 53f
10:20am  -   -   -  7 11 mph 1018mb 52f 53f
10:10am  -   -   -  7 11 mph 1018mb 52f 53f
10:00am  -   -   -  9 13 mph 1017.9mb 52f 54f
9:50am 8ft 14s 9s 9 13 mph 1017.9mb 52f 54f
9:40am 8ft  -  9s 11 18 mph 1017.6mb 52f 54f
9:30am  -   -   -  11 16 mph 1017.6mb 52f 54f
9:20am  -   -   -  11 16 mph 1017.5mb 52f 54f
9:10am  -   -   -  9 13 mph 1017.4mb 52f 54f
9:00am  -   -   -  9 16 mph 1017.4mb - 54f
8:50am 8ft 11s 9s 9 13 mph 1017.3mb 52f 54f
8:40am  -   -   -  9 13 mph 1017.2mb 52f 54f
8:30am  -   -   -  9 16 mph 1017.1mb - -
8:20am  -   -   -  9 13 mph 1017mb 52f 54f
8:10am  -   -   -  7 11 mph 1017mb - 53f
8:00am  -   -   -  7 11 mph 1017mb - 53f
7:50am 8ft 12s 9s 7 11 mph 1017.1mb 52f 53f
7:40am 8ft  -  9s 4 9 mph 1017.2mb 52f 53f
7:30am  -   -   -  4 7 mph 1017.2mb 52f 53f
7:20am  -   -   -  4 9 mph 1017.2mb 52f 53f
7:10am  -   -   -  4 9 mph 1017.3mb 52f 53f
7:00am  -   -   -  7 9 mph 1017.2mb 52f 53f
6:50am 8ft 13s 9s 7 9 mph 1017.2mb 52f 53f
6:40am 8ft  -  9s 7 9 mph 1017.1mb 52f 53f
6:30am  -   -   -  7 9 mph 1017.1mb 52f 53f
6:20am  -   -   -  4 9 mph 1017.1mb 52f 53f
6:10am  -   -   -  4 9 mph 1017.2mb 52f 53f
6:00am  -   -   -  4 7 mph 1017.2mb 52f 53f
5:50am 9ft 12s 10s 4 9 mph 1017.2mb 52f 53f
5:40am  -   -   -  7 11 mph 1017.3mb 52f 54f
5:30am  -   -   -  7 11 mph 1017.2mb 52f 53f
5:20am  -   -   -  7 9 mph 1017.5mb 52f 53f
5:10am  -   -   -  7 9 mph 1017.6mb 52f 53f
5:00am  -   -   -  7 9 mph 1017.7mb 52f 53f
4:50am 8.5ft 13s 9s 9 11 mph 1017.7mb 52f 54f
4:40am 8.5ft  -  9s 9 13 mph 1017.5mb 52f 54f
4:30am  -   -   -  9 13 mph 1017.6mb 52f 55f
4:20am  -   -   -  9 13 mph 1017.7mb 52f 55f
4:10am  -   -   -  9 13 mph 1017.6mb 52f 55f
4:00am  -   -   -  11 13 mph 1017.8mb 52f 55f
3:50am 7ft 13s 9s 11 13 mph 1017.8mb - 55f
3:40am 7ft  -  9s 11 16 mph 1017.8mb 52f 55f
3:30am  -   -   -  11 13 mph 1018mb 52f 55f
3:20am  -   -   -  11 16 mph 1018.1mb 52f 55f
3:10am  -   -   -  11 16 mph 1018.2mb 52f 56f
3:00am  -   -   -  11 16 mph 1018.1mb 52f 55f
2:50am 8ft 13s 9s 11 16 mph 1018.1mb 52f 55f
2:40am 8ft  -  9s 13 18 mph 1018.2mb 52f 56f
2:30am  -   -   -  13 18 mph 1018.2mb 52f 56f
2:20am  -   -   -  13 18 mph 1018.2mb 52f 56f
2:10am  -   -   -  13 18 mph 1018.2mb 52f 56f
2:00am  -   -   -  11 16 mph 1018.3mb 52f 55f
1:50am 7ft 14s 8s 11 16 mph 1018.3mb 52f 55f
1:40am 7ft  -  8s 11 16 mph 1018.3mb 52f 55f
1:30am  -   -   -  11 16 mph 1018.4mb 52f 55f
1:20am  -   -   -  9 13 mph 1018.4mb 52f 55f
1:10am  -   -   -  11 13 mph 1018.5mb 52f 55f
1:00am  -   -   -  13 18 mph 1018.4mb 52f 56f
12:50am 8ft 13s 9s 13 18 mph 1018.4mb 52f 56f
12:40am  -   -   -  13 18 mph 1018.5mb 52f 56f
12:30am  -   -   -  13 20 mph 1018.5mb 52f 56f
12:20am  -   -   -  13 18 mph 1018.5mb 52f 55f
12:10am  -   -   -  13 16 mph 1018.7mb 52f 56f
12:00am  -   -   -  16 18 mph 1018.8mb 52f 56f
Sat 01/13 11:50pm 6ft 14s 8s 16 20 mph 1018.9mb 52f 56f
11:40pm 6ft  -  8s 16 22 mph 1019mb 52f 56f
11:30pm  -   -   -  13 18 mph 1019.1mb 52f 56f
11:20pm  -   -   -  13 18 mph 1019.3mb 52f 56f
11:10pm  -   -   -  13 18 mph 1019.4mb 52f 56f
11:00pm  -   -   -  11 18 mph 1019.4mb 52f 56f
10:50pm 7ft 14s 9s 11 16 mph 1019.5mb - 55f
10:40pm 7ft  -  9s 11 16 mph 1019.5mb 52f 55f
10:30pm  -   -   -  9 13 mph 1019.5mb 52f 55f
10:20pm  -   -   -  9 13 mph 1019.5mb 52f 55f
10:10pm  -   -   -  11 16 mph 1019.6mb 52f 55f
10:00pm  -   -   -  11 18 mph 1019.6mb 51f 55f
9:50pm 8ft 14s 10s 11 16 mph 1019.7mb 51f 55f
9:40pm 8ft  -  10s 13 20 mph 1019.8mb 51f 56f
9:30pm  -   -   -  13 18 mph 1019.9mb 51f 55f
9:20pm  -   -   -  13 18 mph 1019.9mb 51f 55f
9:10pm  -   -   -  13 18 mph 1020mb 51f 56f
9:00pm  -   -   -  13 18 mph 1020.2mb 51f 55f
8:50pm 8ft 14s 10s 11 18 mph 1020.2mb 51f 55f
8:40pm  -   -   -  9 13 mph 1020.3mb 51f 55f
8:30pm  -   -   -  9 13 mph 1020.2mb - 56f
8:20pm  -   -   -  9 13 mph 1020.3mb 51f 56f
8:10pm  -   -   -  11 16 mph 1020.5mb 51f 56f
8:00pm  -   -   -  11 16 mph 1020.6mb 51f 56f
7:50pm 8ft 15s 10s 11 16 mph 1020.7mb 51f 55f
7:40pm  -   -   -  7 13 mph 1020.7mb 51f 54f
7:30pm  -   -   -  7 11 mph 1020.8mb 51f 54f
7:20pm  -   -   -  7 11 mph 1020.8mb 51f 54f
7:10pm  -   -   -  7 11 mph 1020.9mb 51f 54f
7:00pm  -   -   -  7 9 mph 1020.8mb 51f 54f
6:50pm 7.5ft 10s 9s 7 11 mph 1020.8mb 51f 54f
6:40pm  -   -   -  7 11 mph 1021mb 51f 54f
6:30pm  -   -   -  7 9 mph 1021.1mb - 54f
6:20pm  -   -   -  7 11 mph 1021.2mb 51f 54f
6:10pm  -   -   -  7 11 mph 1021.2mb 51f 54f
6:00pm  -   -   -  7 11 mph 1021.3mb - 54f
5:50pm 7.5ft 9s 9s 7 11 mph 1021.4mb 51f 54f
5:40pm  -   -   -  7 11 mph 1021.5mb 51f 54f
5:30pm  -   -   -  7 11 mph 1021.7mb 51f 54f
5:20pm  -   -   -  9 11 mph 1021.8mb 51f 55f
5:10pm  -   -   -  9 11 mph 1021.9mb 51f 55f
5:00pm  -   -   -  7 13 mph 1022mb - 55f
4:50pm 7ft  -  9s 9 11 mph 1022mb 51f 55f
4:40pm 7ft 14s 9s  -  mph - - -
4:30pm  -   -   -  9 11 mph 1022.3mb 51f 55f
4:20pm  -   -   -  9 13 mph 1022.4mb 51f 55f
4:10pm  -   -   -  9 11 mph 1022.6mb 51f 55f
4:00pm  -   -   -  9 13 mph 1022.6mb 52f 55f
3:50pm 7.5ft 9s 9s 9 13 mph 1022.7mb 52f 55f
3:40pm  -   -   -  9 13 mph 1022.8mb 52f 55f
3:20pm  -   -   -  9 13 mph 1023mb 51f 55f
3:10pm  -   -   -  9 11 mph 1023mb 52f 55f
3:00pm  -   -   -  9 13 mph 1023mb 51f 55f
2:50pm 7ft 15s 9s 9 11 mph 1023.2mb 51f 55f
2:40pm 7ft  -  9s 9 11 mph 1023.3mb 51f 55f
2:30pm  -   -   -  9 13 mph 1023.4mb - 55f
2:20pm  -   -   -  9 13 mph 1023.5mb 51f 54f
2:10pm  -   -   -  9 13 mph 1023.6mb 51f 54f
2:00pm  -   -   -  9 13 mph 1023.7mb 51f 54f
1:50pm 7.5ft 11s 9s 9 13 mph 1023.9mb 51f 54f
1:40pm  -   -   -  9 13 mph 1024.2mb 51f 53f
1:30pm  -   -   -  9 13 mph 1024.4mb 51f 53f
1:20pm  -   -   -  9 13 mph - 51f 53f
1:10pm  -   -   -  9 13 mph 1024.8mb 51f 53f
1:00pm  -   -   -  9 11 mph 1025mb 51f 53f
12:50pm 7ft 16s 9s 9 11 mph 1025.2mb 51f 53f
12:40pm 7ft  -  9s 9 11 mph 1025.4mb 51f 52f
12:30pm  -   -   -  9 11 mph 1025.6mb 51f 52f
12:20pm  -   -   -  9 11 mph 1025.9mb 51f 52f
12:10pm  -   -   -  9 11 mph 1026mb 51f 52f
12:00pm  -   -   -  7 11 mph 1026.1mb - 52f
11:50am 6ft 11s 8s 7 9 mph 1026.3mb 51f 52f
11:40am 6ft  -  8s 7 9 mph 1026.4mb 51f 52f
11:30am  -   -   -  7 9 mph 1026.5mb 51f 52f
11:20am  -   -   -  4 9 mph 1026.8mb 51f 53f
11:10am  -   -   -  7 9 mph 1026.9mb 51f 52f
11:00am  -   -   -  7 9 mph 1027mb 51f 52f
10:50am 6.5ft 14s 9s 7 11 mph 1027.1mb 51f 52f
10:40am 6.5ft  -  9s 7 11 mph 1027.1mb 51f 52f
10:30am  -   -   -  7 11 mph 1027.2mb 51f 52f
10:20am  -   -   -  7 11 mph 1027.2mb 51f 52f
10:10am  -   -   -  7 11 mph 1027.2mb 51f 52f
10:00am  -   -   -  7 9 mph 1027.2mb 51f 52f
9:50am 7ft 12s 8s 7 11 mph 1027.3mb 51f 52f
9:40am 7ft  -  8s 7 9 mph 1027.2mb 51f 52f
9:30am  -   -   -  7 9 mph 1027.3mb 51f 52f
9:20am  -   -   -  7 11 mph 1027.3mb 51f 52f
9:10am  -   -   -  7 11 mph 1027.2mb 51f 52f
9:00am  -   -   -  7 11 mph 1027.3mb 51f 52f
8:50am 6ft 14s 8s 9 11 mph 1027.3mb 51f 52f
8:40am 6ft  -  8s 9 13 mph 1027.3mb 51f 52f
8:30am  -   -   -  9 13 mph 1027.2mb 51f 52f
8:20am  -   -   -  11 13 mph 1027.2mb 51f 52f
8:10am  -   -   -  9 13 mph 1027.3mb 51f 51f
8:00am  -   -   -  7 11 mph 1027.4mb - 51f
7:50am 7ft 14s 8s 7 11 mph 1027.5mb 51f 51f
7:40am 7ft  -  8s 7 11 mph 1027.6mb 51f 51f
7:30am  -   -   -  7 11 mph 1027.6mb 51f 51f
7:20am  -   -   -  7 11 mph 1027.7mb 51f 51f
7:10am  -   -   -  7 9 mph 1027.7mb 51f 51f
7:00am  -   -   -  7 11 mph 1027.9mb 51f 51f
6:50am 6.5ft 14s 8s 9 13 mph 1028.1mb - 51f
6:40am  -   -   -  9 13 mph 1028.3mb 51f 51f
6:30am  -   -   -  9 11 mph 1028.3mb 51f 52f
6:20am  -   -   -  7 11 mph 1028.3mb 51f 51f
6:10am  -   -   -  7 11 mph 1028.4mb 51f 51f
6:00am  -   -   -  4 9 mph 1028.6mb 51f 51f
5:50am 7.5ft 14s 8s 4 9 mph 1028.6mb 51f 51f
5:40am 7.5ft  -  8s 4 11 mph - 51f 51f
5:30am  -   -   -  4 9 mph 1028.7mb 51f 51f
5:20am  -   -   -  4 9 mph 1028.7mb 51f 51f
5:10am  -   -   -  4 9 mph 1028.8mb 51f 51f
5:00am  -   -   -  7 11 mph - 51f 51f
4:50am 7ft 15s 8s 4 9 mph 1029mb 51f 51f
4:40am  -   -   -  4 9 mph 1029mb 51f 51f
4:30am  -   -   -  4 9 mph 1029.1mb 51f 51f
4:20am  -   -   -  4 9 mph 1029.2mb 51f 51f
4:10am  -   -   -  4 7 mph 1029.2mb 51f 51f
4:00am  -   -   -  2 7 mph 1029.3mb 51f 51f
3:50am 7.5ft 14s 8s 4 7 mph 1029.2mb 51f 51f
3:40am 7.5ft  -  8s 4 9 mph 1029.3mb 51f 51f
3:30am  -   -   -  4 7 mph 1029.3mb 51f 51f
3:20am  -   -   -  4 9 mph 1029.3mb 51f 52f
3:10am  -   -   -  4 9 mph 1029.4mb 51f 52f
3:00am  -   -   -  7 9 mph 1029.4mb 51f 52f
2:50am 8ft 10s 8s 7 9 mph 1029.4mb 51f 52f
2:40am 8ft  -  8s 7 11 mph 1029.4mb 51f 52f
2:30am  -   -   -  7 11 mph 1029.4mb 51f 52f
2:20am  -   -   -  7 9 mph 1029.5mb - 52f
2:10am  -   -   -  7 9 mph 1029.4mb 51f 52f
2:00am  -   -   -  7 11 mph 1029.3mb 51f 52f
1:50am 8ft 11s 8s 9 11 mph 1029.3mb 51f 52f
1:40am 8ft  -  8s 9 11 mph 1029.4mb 51f 52f
1:30am  -   -   -  9 13 mph 1029.3mb 51f 52f
1:20am  -   -   -  9 11 mph 1029.3mb 51f 52f
1:10am  -   -   -  9 11 mph 1029.2mb 51f 52f
1:00am  -   -   -  9 13 mph 1029.2mb 51f 52f
12:50am 8.5ft  -  8s 9 13 mph 1029.2mb - 52f
12:40am 8.5ft 11s  -   -  mph - 51f -
12:30am  -   -   -  9 11 mph 1029.5mb 51f 52f
12:20am  -   -   -  9 11 mph 1029.5mb 51f 53f
12:10am  -   -   -  11 16 mph - 51f 53f
12:00am  -   -   -  11 13 mph 1029.3mb 51f 53f
Fri 01/12 11:50pm 8ft 11s 8s 13 16 mph 1029.3mb 51f 53f
11:40pm  -   -   -  11 16 mph 1029.3mb 51f 53f
11:30pm  -   -   -  11 16 mph 1029.4mb 51f 53f
11:20pm  -   -   -  11 16 mph 1029.2mb 51f 53f
11:10pm  -   -   -  13 16 mph 1029.1mb - 53f
11:00pm  -   -   -  11 16 mph 1029.1mb 51f 53f
10:50pm 8.5ft 10s 8s 11 16 mph 1029.1mb 51f 53f
10:40pm  -   -   -  11 16 mph 1029.1mb 51f 52f
10:30pm  -   -   -  13 16 mph 1029.1mb 51f 52f
10:20pm  -   -   -  11 16 mph 1029mb 51f 52f
10:10pm  -   -   -  11 16 mph 1029mb 51f 52f
10:00pm  -   -   -  11 16 mph 1029mb 51f 52f
9:50pm 9ft 11s 8s 11 16 mph 1028.9mb 51f 52f
9:40pm  -   -   -  11 16 mph 1028.9mb 51f 52f